createdAt,value
2018-12-05T00:00:15.483Z,5.44
2018-12-05T00:01:15.565Z,5.45
2018-12-05T00:02:15.718Z,5.45
2018-12-05T00:03:15.623Z,5.48
2018-12-05T00:04:15.383Z,5.46
2018-12-05T00:05:15.491Z,5.49
2018-12-05T00:06:16.143Z,5.47
2018-12-05T00:07:15.651Z,5.46
2018-12-05T00:08:15.566Z,5.46
2018-12-05T00:09:15.649Z,5.49
2018-12-05T00:10:15.400Z,5.51
2018-12-05T00:11:15.824Z,5.52
2018-12-05T00:12:15.333Z,5.5
2018-12-05T00:13:15.337Z,5.51
2018-12-05T00:14:15.483Z,5.52
2018-12-05T00:15:15.494Z,5.51
2018-12-05T00:16:15.357Z,5.51
2018-12-05T00:17:15.399Z,5.53
2018-12-05T00:18:15.353Z,5.54
2018-12-05T00:19:15.471Z,5.52
2018-12-05T00:20:15.350Z,5.5
2018-12-05T00:21:15.492Z,5.49
2018-12-05T00:22:15.473Z,5.5
2018-12-05T00:23:15.648Z,5.5
2018-12-05T00:24:15.356Z,5.52
2018-12-05T00:25:15.643Z,5.51
2018-12-05T00:26:15.677Z,5.49
2018-12-05T00:27:15.383Z,5.48
2018-12-05T00:28:15.421Z,5.44
2018-12-05T00:29:15.314Z,5.45
2018-12-05T00:30:15.386Z,5.43
2018-12-05T00:31:15.378Z,5.43
2018-12-05T00:32:15.420Z,5.44
2018-12-05T00:33:15.366Z,5.42
2018-12-05T00:34:15.316Z,5.43
2018-12-05T00:35:15.302Z,5.44
2018-12-05T00:36:15.300Z,5.44
2018-12-05T00:37:15.451Z,5.4
2018-12-05T00:38:15.361Z,5.37
2018-12-05T00:39:15.292Z,5.37
2018-12-05T00:40:15.635Z,5.34
2018-12-05T00:41:15.348Z,5.31
2018-12-05T00:42:15.527Z,5.29
2018-12-05T00:43:15.379Z,5.28
2018-12-05T00:44:15.385Z,5.27
2018-12-05T00:45:15.306Z,5.28
2018-12-05T00:46:15.297Z,5.27
2018-12-05T00:47:15.269Z,5.3
2018-12-05T00:48:15.312Z,5.27
2018-12-05T00:49:15.446Z,5.26
2018-12-05T00:50:15.391Z,5.25
2018-12-05T00:51:15.416Z,5.27
2018-12-05T00:52:15.344Z,5.27
2018-12-05T00:53:15.360Z,5.27
2018-12-05T00:54:15.427Z,5.24
2018-12-05T00:55:15.371Z,5.24
2018-12-05T00:56:15.489Z,5.21
2018-12-05T00:57:15.692Z,5.21
2018-12-05T00:58:15.340Z,5.25
2018-12-05T00:59:15.681Z,5.27
2018-12-05T01:00:15.284Z,5.3
2018-12-05T01:01:15.360Z,5.3
2018-12-05T01:02:15.248Z,5.31
2018-12-05T01:03:15.290Z,5.29
2018-12-05T01:04:15.347Z,5.29
2018-12-05T01:05:15.577Z,5.34
2018-12-05T01:06:15.498Z,5.31
2018-12-05T01:07:15.459Z,5.32
2018-12-05T01:08:15.398Z,5.33
2018-12-05T01:09:15.297Z,5.34
2018-12-05T01:10:15.316Z,5.33
2018-12-05T01:11:15.274Z,5.38
2018-12-05T01:12:15.352Z,5.37
2018-12-05T01:13:15.516Z,5.38
2018-12-05T01:14:15.408Z,5.38
2018-12-05T01:15:15.263Z,5.39
2018-12-05T01:16:15.368Z,5.36
2018-12-05T01:17:15.286Z,5.39
2018-12-05T01:18:15.308Z,5.4
2018-12-05T01:19:15.266Z,5.43
2018-12-05T01:20:15.442Z,5.43
2018-12-05T01:21:15.329Z,5.43
2018-12-05T01:22:15.416Z,5.43
2018-12-05T01:23:15.584Z,5.41
2018-12-05T01:24:15.280Z,5.43
2018-12-05T01:25:15.326Z,5.4
2018-12-05T01:26:15.790Z,5.43
2018-12-05T01:27:15.287Z,5.41
2018-12-05T01:28:15.279Z,5.42
2018-12-05T01:29:15.236Z,5.4
2018-12-05T01:30:15.560Z,5.38
2018-12-05T01:31:15.280Z,5.36
2018-12-05T01:32:15.273Z,5.38
2018-12-05T01:33:16.738Z,5.39
2018-12-05T01:34:15.286Z,5.4
2018-12-05T01:35:15.435Z,5.4
2018-12-05T01:36:15.250Z,5.43
2018-12-05T01:37:15.392Z,5.38
2018-12-05T01:38:15.837Z,5.37
2018-12-05T01:39:15.269Z,5.31
2018-12-05T01:40:15.491Z,5.31
2018-12-05T01:41:15.482Z,5.27
2018-12-05T01:42:15.475Z,5.23
2018-12-05T01:43:15.247Z,5.22
2018-12-05T01:44:15.239Z,5.19
2018-12-05T01:45:15.370Z,5.17
2018-12-05T01:46:15.236Z,5.17
2018-12-05T01:47:15.222Z,5.13
2018-12-05T01:48:15.283Z,5.09
2018-12-05T01:49:15.233Z,5.06
2018-12-05T01:50:15.514Z,5.06
2018-12-05T01:51:15.256Z,5.07
2018-12-05T01:52:15.463Z,5.06
2018-12-05T01:53:15.343Z,5.06
2018-12-05T01:54:15.238Z,5.09
2018-12-05T01:55:15.316Z,5.07
2018-12-05T01:56:15.246Z,5.07
2018-12-05T01:57:15.268Z,5.04
2018-12-05T01:58:15.230Z,5.01
2018-12-05T01:59:15.222Z,5.01
2018-12-05T02:00:15.330Z,5.04
2018-12-05T02:01:15.246Z,5.05
2018-12-05T02:02:15.239Z,5.08
2018-12-05T02:03:15.489Z,5.09
2018-12-05T02:04:15.231Z,5.12
2018-12-05T02:05:15.255Z,5.1
2018-12-05T02:06:15.571Z,5.12
2018-12-05T02:07:15.793Z,5.13
2018-12-05T02:08:15.209Z,5.13
2018-12-05T02:09:15.249Z,5.12
2018-12-05T02:10:15.224Z,5.13
2018-12-05T02:11:15.299Z,5.14
2018-12-05T02:12:15.688Z,5.13
2018-12-05T02:13:15.309Z,5.1
2018-12-05T02:14:15.292Z,5.07
2018-12-05T02:15:15.265Z,5.11
2018-12-05T02:16:15.435Z,5.08
2018-12-05T02:17:15.168Z,5.1
2018-12-05T02:18:15.214Z,5.09
2018-12-05T02:19:15.230Z,5.12
2018-12-05T02:20:15.302Z,5.11
2018-12-05T02:21:15.248Z,5.11
2018-12-05T02:22:15.268Z,5.11
2018-12-05T02:23:15.415Z,5.12
2018-12-05T02:24:15.460Z,5.13
2018-12-05T02:25:15.211Z,5.11
2018-12-05T02:26:15.578Z,5.12
2018-12-05T02:27:15.339Z,5.14
2018-12-05T02:28:15.642Z,5.14
2018-12-05T02:29:15.777Z,5.16
2018-12-05T02:30:15.469Z,5.16
2018-12-05T02:31:15.299Z,5.17
2018-12-05T02:32:15.340Z,5.2
2018-12-05T02:33:15.649Z,5.18
2018-12-05T02:34:15.185Z,5.2
2018-12-05T02:35:15.514Z,5.19
2018-12-05T02:36:15.325Z,5.19
2018-12-05T02:37:15.222Z,5.18
2018-12-05T02:38:15.276Z,5.14
2018-12-05T02:39:15.390Z,5.13
2018-12-05T02:40:15.167Z,5.12
2018-12-05T02:41:15.287Z,5.13
2018-12-05T02:42:15.396Z,5.14
2018-12-05T02:43:15.350Z,5.12
2018-12-05T02:44:15.275Z,5.11
2018-12-05T02:45:15.308Z,5.06
2018-12-05T02:46:15.264Z,5.06
2018-12-05T02:47:15.262Z,5.1
2018-12-05T02:48:15.254Z,5.11
2018-12-05T02:49:15.273Z,5.1
2018-12-05T02:50:15.544Z,5.08
2018-12-05T02:51:15.170Z,5.1
2018-12-05T02:52:15.272Z,5.06
2018-12-05T02:53:15.321Z,5.05
2018-12-05T02:54:15.163Z,5.05
2018-12-05T02:55:15.281Z,5.04
2018-12-05T02:56:15.345Z,5.04
2018-12-05T02:57:15.266Z,5.04
2018-12-05T02:58:15.224Z,5
2018-12-05T02:59:15.369Z,5.01
2018-12-05T03:00:15.270Z,5.02
2018-12-05T03:01:15.139Z,5.06
2018-12-05T03:02:15.233Z,5.07
2018-12-05T03:03:15.247Z,5.04
2018-12-05T03:04:15.466Z,5.11
2018-12-05T03:05:15.356Z,5.1
2018-12-05T03:06:15.374Z,5.12
2018-12-05T03:07:15.255Z,5.07
2018-12-05T03:08:15.224Z,5.06
2018-12-05T03:09:15.325Z,5.06
2018-12-05T03:10:15.298Z,5.08
2018-12-05T03:11:15.359Z,5.1
2018-12-05T03:12:15.268Z,5.13
2018-12-05T03:13:15.280Z,5.14
2018-12-05T03:14:15.394Z,5.13
2018-12-05T03:15:15.302Z,5.12
2018-12-05T03:16:15.342Z,5.14
2018-12-05T03:17:15.122Z,5.13
2018-12-05T03:18:15.221Z,5.14
2018-12-05T03:19:15.330Z,5.16
2018-12-05T03:20:15.936Z,5.19
2018-12-05T03:21:15.225Z,5.2
2018-12-05T03:22:15.375Z,5.2
2018-12-05T03:23:15.308Z,5.15
2018-12-05T03:24:15.287Z,5.1
2018-12-05T03:25:15.249Z,5.09
2018-12-05T03:26:15.217Z,5.07
2018-12-05T03:27:15.224Z,5.1
2018-12-05T03:28:15.217Z,5.06
2018-12-05T03:29:15.305Z,5.07
2018-12-05T03:30:15.271Z,5.04
2018-12-05T03:31:15.178Z,5.06
2018-12-05T03:32:15.249Z,5.02
2018-12-05T03:33:15.361Z,5.01
2018-12-05T03:34:15.173Z,5.01
2018-12-05T03:35:15.066Z,4.98
2018-12-05T03:36:15.167Z,4.94
2018-12-05T03:37:15.213Z,4.95
2018-12-05T03:38:15.327Z,4.93
2018-12-05T03:39:15.228Z,4.87
2018-12-05T03:40:15.061Z,4.88
2018-12-05T03:41:15.233Z,4.86
2018-12-05T03:42:15.176Z,4.87
2018-12-05T03:43:15.066Z,4.86
2018-12-05T03:44:15.125Z,4.89
2018-12-05T03:45:15.117Z,4.9
2018-12-05T03:46:15.205Z,4.95
2018-12-05T03:47:15.220Z,4.95
2018-12-05T03:48:15.207Z,4.95
2018-12-05T03:49:15.290Z,4.96
2018-12-05T03:50:15.155Z,4.96
2018-12-05T03:51:15.115Z,4.99
2018-12-05T03:52:15.241Z,5
2018-12-05T03:53:15.189Z,4.99
2018-12-05T03:54:15.063Z,5.01
2018-12-05T03:55:15.214Z,5.02
2018-12-05T03:56:15.105Z,5.02
2018-12-05T03:57:15.139Z,5.04
2018-12-05T03:58:15.214Z,5.02
2018-12-05T03:59:15.103Z,5.03
2018-12-05T04:00:15.256Z,5.02
2018-12-05T04:01:15.214Z,5.04
2018-12-05T04:02:15.323Z,5.03
2018-12-05T04:03:15.221Z,5.05
2018-12-05T04:04:15.154Z,5.04
2018-12-05T04:05:15.243Z,5.05
2018-12-05T04:06:15.206Z,5.08
2018-12-05T04:07:15.914Z,5.07
2018-12-05T04:08:15.239Z,5.08
2018-12-05T04:09:15.133Z,5.07
2018-12-05T04:10:15.941Z,5.1
2018-12-05T04:11:15.239Z,5.08
2018-12-05T04:12:15.200Z,5.11
2018-12-05T04:13:15.050Z,5.1
2018-12-05T04:14:15.194Z,5.08
2018-12-05T04:15:15.277Z,5.06
2018-12-05T04:16:15.002Z,5.1
2018-12-05T04:17:15.025Z,5.06
2018-12-05T04:18:15.211Z,5.04
2018-12-05T04:19:15.428Z,5.04
2018-12-05T04:20:15.203Z,5.06
2018-12-05T04:21:15.105Z,5.03
2018-12-05T04:22:15.381Z,5.02
2018-12-05T04:23:15.187Z,5
2018-12-05T04:24:15.281Z,5.04
2018-12-05T04:25:15.052Z,5.04
2018-12-05T04:26:15.038Z,5.03
2018-12-05T04:27:15.424Z,5.03
2018-12-05T04:28:15.276Z,5.02
2018-12-05T04:29:14.991Z,5.02
2018-12-05T04:30:15.272Z,5
2018-12-05T04:31:15.215Z,5.02
2018-12-05T04:32:16.268Z,5
2018-12-05T04:33:15.243Z,4.99
2018-12-05T04:34:15.234Z,4.97
2018-12-05T04:35:15.003Z,4.99
2018-12-05T04:36:15.236Z,5
2018-12-05T04:37:15.067Z,4.96
2018-12-05T04:38:15.541Z,4.97
2018-12-05T04:39:15.199Z,4.99
2018-12-05T04:40:15.448Z,5.01
2018-12-05T04:41:14.999Z,5.01
2018-12-05T04:42:15.063Z,5
2018-12-05T04:43:15.094Z,4.97
2018-12-05T04:44:15.012Z,4.96
2018-12-05T04:45:15.037Z,4.98
2018-12-05T04:46:15.247Z,4.99
2018-12-05T04:47:15.284Z,5
2018-12-05T04:48:15.095Z,5.01
2018-12-05T04:49:16.129Z,5.02
2018-12-05T04:50:15.239Z,5.02
2018-12-05T04:51:15.052Z,5
2018-12-05T04:52:15.434Z,5.01
2018-12-05T04:53:15.064Z,4.97
2018-12-05T04:54:15.159Z,5
2018-12-05T04:55:15.025Z,5
2018-12-05T04:56:15.001Z,5.01
2018-12-05T04:57:14.938Z,4.98
2018-12-05T04:58:15.231Z,4.99
2018-12-05T04:59:14.981Z,5.03
2018-12-05T05:00:15.063Z,5.01
2018-12-05T05:01:14.956Z,5.02
2018-12-05T05:02:14.989Z,5.02
2018-12-05T05:03:14.980Z,5.05
2018-12-05T05:04:15.244Z,5.03
2018-12-05T05:05:15.112Z,5.05
2018-12-05T05:06:14.976Z,5.04
2018-12-05T05:07:15.142Z,5.06
2018-12-05T05:08:15.227Z,5.05
2018-12-05T05:09:15.052Z,5.06
2018-12-05T05:10:15.047Z,5.04
2018-12-05T05:11:14.933Z,5.07
2018-12-05T05:12:15.308Z,5.06
2018-12-05T05:13:15.040Z,5.06
2018-12-05T05:14:14.955Z,5.06
2018-12-05T05:15:15.294Z,5.07
2018-12-05T05:16:14.918Z,5.08
2018-12-05T05:17:14.926Z,5.09
2018-12-05T05:18:14.967Z,5.12
2018-12-05T05:19:15.304Z,5.09
2018-12-05T05:20:15.050Z,5.11
2018-12-05T05:21:14.997Z,5.09
2018-12-05T05:22:14.963Z,5.12
2018-12-05T05:23:15.189Z,5.13
2018-12-05T05:24:14.993Z,5.16
2018-12-05T05:25:14.947Z,5.12
2018-12-05T05:26:14.954Z,5.13
2018-12-05T05:27:14.998Z,5.12
2018-12-05T05:28:14.935Z,5.12
2018-12-05T05:29:14.965Z,5.13
2018-12-05T05:30:14.919Z,5.16
2018-12-05T05:31:14.943Z,5.12
2018-12-05T05:32:15.103Z,5.13
2018-12-05T05:33:15.657Z,5.13
2018-12-05T05:34:15.216Z,5.12
2018-12-05T05:35:14.958Z,5.13
2018-12-05T05:36:17.846Z,5.14
2018-12-05T05:37:14.989Z,5.17
2018-12-05T05:38:14.945Z,5.18
2018-12-05T05:39:15.233Z,5.17
2018-12-05T05:40:14.995Z,5.15
2018-12-05T05:41:14.928Z,5.17
2018-12-05T05:42:15.849Z,5.15
2018-12-05T05:43:14.964Z,5.16
2018-12-05T05:44:14.972Z,5.16
2018-12-05T05:45:15.199Z,5.17
2018-12-05T05:46:15.074Z,5.17
2018-12-05T05:47:15.217Z,5.18
2018-12-05T05:48:15.268Z,5.18
2018-12-05T05:49:15.091Z,5.18
2018-12-05T05:50:14.981Z,5.2
2018-12-05T05:51:15.003Z,5.19
2018-12-05T05:52:14.902Z,5.23
2018-12-05T05:53:15.092Z,5.22
2018-12-05T05:54:14.941Z,5.28
2018-12-05T05:55:14.932Z,5.25
2018-12-05T05:56:15.027Z,5.26
2018-12-05T05:57:14.992Z,5.27
2018-12-05T05:58:17.803Z,5.27
2018-12-05T05:59:14.961Z,5.27
2018-12-05T06:00:14.898Z,5.29
2018-12-05T06:01:14.942Z,5.29
2018-12-05T06:02:15.288Z,5.29
2018-12-05T06:03:14.879Z,5.27
2018-12-05T06:04:14.929Z,5.3
2018-12-05T06:05:15.278Z,5.31
2018-12-05T06:06:15.372Z,5.34
2018-12-05T06:07:15.154Z,5.37
2018-12-05T06:08:15.322Z,5.34
2018-12-05T06:09:14.907Z,5.37
2018-12-05T06:10:15.171Z,5.38
2018-12-05T06:11:14.958Z,5.42
2018-12-05T06:12:15.040Z,5.41
2018-12-05T06:13:14.889Z,5.48
2018-12-05T06:14:15.290Z,5.49
2018-12-05T06:15:15.779Z,5.49
2018-12-05T06:16:15.172Z,5.54
2018-12-05T06:17:14.985Z,5.54
2018-12-05T06:18:14.924Z,5.53
2018-12-05T06:19:14.975Z,5.55
2018-12-05T06:20:14.873Z,5.59
2018-12-05T06:21:14.997Z,5.61
2018-12-05T06:22:14.951Z,5.6
2018-12-05T06:23:14.975Z,5.62
2018-12-05T06:24:15.160Z,5.64
2018-12-05T06:25:14.870Z,5.64
2018-12-05T06:26:15.018Z,5.64
2018-12-05T06:27:14.927Z,5.66
2018-12-05T06:28:15.211Z,5.68
2018-12-05T06:29:15.239Z,5.69
2018-12-05T06:30:14.864Z,5.7
2018-12-05T06:31:14.898Z,5.71
2018-12-05T06:32:14.902Z,5.67
2018-12-05T06:33:14.987Z,5.69
2018-12-05T06:34:14.891Z,5.72
2018-12-05T06:35:14.938Z,5.7
2018-12-05T06:36:14.907Z,5.73
2018-12-05T06:37:14.853Z,5.73
2018-12-05T06:38:15.205Z,5.73
2018-12-05T06:39:15.005Z,5.72
2018-12-05T06:40:14.966Z,5.74
2018-12-05T06:41:14.910Z,5.77
2018-12-05T06:42:14.909Z,5.74
2018-12-05T06:43:15.022Z,5.77
2018-12-05T06:44:14.896Z,5.79
2018-12-05T06:45:14.968Z,5.78
2018-12-05T06:46:14.996Z,5.77
2018-12-05T06:47:15.038Z,5.77
2018-12-05T06:48:14.836Z,5.77
2018-12-05T06:49:14.858Z,5.78
2018-12-05T06:50:15.086Z,5.78
2018-12-05T06:51:15.007Z,5.74
2018-12-05T06:52:15.012Z,5.77
2018-12-05T06:53:14.989Z,5.81
2018-12-05T06:54:14.892Z,5.8
2018-12-05T06:55:14.851Z,5.79
2018-12-05T06:56:14.809Z,5.81
2018-12-05T06:57:14.828Z,5.82
2018-12-05T06:58:14.839Z,5.83
2018-12-05T06:59:14.847Z,5.81
2018-12-05T07:00:14.799Z,5.85
2018-12-05T07:01:14.977Z,5.86
2018-12-05T07:02:14.783Z,5.88
2018-12-05T07:03:14.869Z,5.9
2018-12-05T07:04:14.795Z,5.9
2018-12-05T07:05:14.784Z,5.93
2018-12-05T07:06:14.795Z,5.94
2018-12-05T07:07:14.784Z,5.95
2018-12-05T07:08:14.804Z,5.93
2018-12-05T07:09:14.830Z,5.94
2018-12-05T07:10:14.934Z,5.91
2018-12-05T07:11:14.858Z,5.86
2018-12-05T07:12:15.001Z,5.84
2018-12-05T07:13:16.168Z,5.83
2018-12-05T07:14:14.863Z,5.82
2018-12-05T07:15:14.794Z,5.83
2018-12-05T07:16:14.932Z,5.84
2018-12-05T07:17:14.837Z,5.85
2018-12-05T07:18:14.788Z,5.83
2018-12-05T07:19:14.771Z,5.8
2018-12-05T07:20:14.859Z,5.78
2018-12-05T07:21:14.864Z,5.81
2018-12-05T07:22:14.864Z,5.81
2018-12-05T07:23:14.832Z,5.81
2018-12-05T07:24:14.884Z,5.81
2018-12-05T07:25:14.814Z,5.78
2018-12-05T07:26:14.941Z,5.75
2018-12-05T07:27:14.950Z,5.69
2018-12-05T07:28:14.997Z,5.67
2018-12-05T07:29:14.782Z,5.65
2018-12-05T07:30:14.808Z,5.66
2018-12-05T07:31:14.782Z,5.63
2018-12-05T07:32:14.926Z,5.63
2018-12-05T07:33:14.796Z,5.63
2018-12-05T07:34:14.848Z,5.62
2018-12-05T07:35:14.758Z,5.67
2018-12-05T07:36:14.962Z,5.67
2018-12-05T07:37:14.912Z,5.66
2018-12-05T07:38:19.980Z,5.61
2018-12-05T07:39:14.974Z,5.61
2018-12-05T07:40:15.209Z,5.61
2018-12-05T07:41:14.995Z,5.61
2018-12-05T07:42:14.918Z,5.63
2018-12-05T07:43:14.878Z,5.64
2018-12-05T07:44:14.779Z,5.62
2018-12-05T07:45:14.767Z,5.6
2018-12-05T07:46:14.749Z,5.61
2018-12-05T07:47:14.839Z,5.61
2018-12-05T07:48:14.973Z,5.64
2018-12-05T07:49:15.205Z,5.65
2018-12-05T07:50:16.256Z,5.69
2018-12-05T07:51:14.719Z,5.69
2018-12-05T07:52:14.757Z,5.71
2018-12-05T07:53:14.829Z,5.72
2018-12-05T07:54:14.866Z,5.73
2018-12-05T07:55:14.805Z,5.73
2018-12-05T07:56:14.938Z,5.73
2018-12-05T07:57:14.732Z,5.73
2018-12-05T07:58:14.894Z,5.7
2018-12-05T07:59:14.762Z,5.68
2018-12-05T08:00:14.706Z,5.67
2018-12-05T08:01:14.922Z,5.68
2018-12-05T08:02:14.839Z,5.68
2018-12-05T08:03:14.861Z,5.67
2018-12-05T08:04:14.777Z,5.68
2018-12-05T08:05:14.782Z,5.68
2018-12-05T08:06:15.135Z,5.67
2018-12-05T08:07:15.160Z,5.68
2018-12-05T08:08:14.797Z,5.68
2018-12-05T08:09:14.839Z,5.7
2018-12-05T08:10:14.943Z,5.68
2018-12-05T08:11:14.914Z,5.65
2018-12-05T08:12:14.912Z,5.63
2018-12-05T08:13:14.727Z,5.63
2018-12-05T08:14:14.769Z,5.61
2018-12-05T08:15:14.775Z,5.6
2018-12-05T08:16:14.789Z,5.61
2018-12-05T08:17:14.687Z,5.62
2018-12-05T08:18:14.932Z,5.62
2018-12-05T08:19:14.805Z,5.61
2018-12-05T08:20:14.936Z,5.63
2018-12-05T08:21:14.729Z,5.62
2018-12-05T08:22:15.016Z,5.62
2018-12-05T08:23:14.920Z,5.61
2018-12-05T08:24:14.727Z,5.61
2018-12-05T08:25:14.839Z,5.63
2018-12-05T08:26:14.897Z,5.68
2018-12-05T08:27:14.955Z,5.7
2018-12-05T08:28:14.763Z,5.68
2018-12-05T08:29:15.043Z,5.68
2018-12-05T08:30:14.707Z,5.68
2018-12-05T08:31:14.880Z,5.7
2018-12-05T08:32:14.886Z,5.74
2018-12-05T08:33:15.447Z,5.73
2018-12-05T08:34:14.819Z,5.74
2018-12-05T08:35:14.698Z,5.75
2018-12-05T08:36:14.711Z,5.75
2018-12-05T08:37:14.651Z,5.79
2018-12-05T08:38:14.722Z,5.81
2018-12-05T08:39:14.933Z,5.81
2018-12-05T08:40:14.688Z,5.8
2018-12-05T08:41:14.656Z,5.81
2018-12-05T08:42:14.717Z,5.82
2018-12-05T08:43:14.743Z,5.84
2018-12-05T08:44:14.627Z,5.86
2018-12-05T08:45:14.726Z,5.84
2018-12-05T08:46:14.693Z,5.86
2018-12-05T08:47:14.716Z,5.82
2018-12-05T08:48:14.689Z,5.85
2018-12-05T08:49:14.661Z,5.85
2018-12-05T08:50:14.712Z,5.88
2018-12-05T08:51:14.739Z,5.88
2018-12-05T08:52:14.620Z,5.9
2018-12-05T08:53:14.713Z,5.92
2018-12-05T08:54:21.644Z,5.94
2018-12-05T08:55:14.636Z,5.93
2018-12-05T08:56:14.708Z,5.93
2018-12-05T08:57:14.656Z,5.93
2018-12-05T08:58:14.635Z,5.94
2018-12-05T08:59:14.732Z,5.93
2018-12-05T09:00:14.738Z,5.97
2018-12-05T09:01:14.664Z,5.94
2018-12-05T09:02:15.252Z,5.96
2018-12-05T09:03:14.662Z,5.98
2018-12-05T09:04:14.634Z,5.98
2018-12-05T09:05:14.901Z,5.99
2018-12-05T09:06:14.864Z,6.01
2018-12-05T09:07:14.677Z,5.98
2018-12-05T09:08:14.902Z,5.96
2018-12-05T09:09:14.819Z,5.99
2018-12-05T09:10:15.458Z,5.96
2018-12-05T09:11:14.987Z,5.99
2018-12-05T09:12:14.756Z,5.97
2018-12-05T09:13:14.680Z,5.96
2018-12-05T09:14:14.706Z,5.99
2018-12-05T09:15:14.748Z,6.01
2018-12-05T09:16:14.756Z,6
2018-12-05T09:17:14.933Z,5.98
2018-12-05T09:18:14.683Z,5.99
2018-12-05T09:19:14.607Z,6.01
2018-12-05T09:20:14.733Z,6.02
2018-12-05T09:21:14.743Z,6.03
2018-12-05T09:22:14.833Z,6.03
2018-12-05T09:23:14.719Z,6.02
2018-12-05T09:24:14.607Z,6.03
2018-12-05T09:25:14.647Z,6.07
2018-12-05T09:26:14.804Z,6.08
2018-12-05T09:27:14.728Z,6.07
2018-12-05T09:28:14.635Z,6.09
2018-12-05T09:29:14.626Z,6.09
2018-12-05T09:30:15.297Z,6.03
2018-12-05T09:31:14.865Z,6.05
2018-12-05T09:32:14.672Z,6.06
2018-12-05T09:33:14.672Z,6.06
2018-12-05T09:34:14.592Z,6.09
2018-12-05T09:35:14.880Z,6.14
2018-12-05T09:36:14.659Z,6.15
2018-12-05T09:37:14.649Z,6.17
2018-12-05T09:38:14.772Z,6.17
2018-12-05T09:39:14.870Z,6.19
2018-12-05T09:40:14.618Z,6.2
2018-12-05T09:41:14.643Z,6.2
2018-12-05T09:42:14.719Z,6.23
2018-12-05T09:43:14.611Z,6.25
2018-12-05T09:44:14.594Z,6.26
2018-12-05T09:45:14.628Z,6.26
2018-12-05T09:46:15.413Z,6.27
2018-12-05T09:47:16.629Z,6.27
2018-12-05T09:48:14.795Z,6.31
2018-12-05T09:49:15.050Z,6.26
2018-12-05T09:50:14.682Z,6.27
2018-12-05T09:51:14.704Z,6.26
2018-12-05T09:52:14.618Z,6.23
2018-12-05T09:53:14.607Z,6.26
2018-12-05T09:54:14.712Z,6.26
2018-12-05T09:55:14.706Z,6.29
2018-12-05T09:56:14.761Z,6.29
2018-12-05T09:57:14.783Z,6.3
2018-12-05T09:58:14.763Z,6.32
2018-12-05T09:59:14.704Z,6.32
2018-12-05T10:00:14.646Z,6.34
2018-12-05T10:01:14.875Z,6.32
2018-12-05T10:02:14.747Z,6.33
2018-12-05T10:03:14.990Z,6.32
2018-12-05T10:04:14.880Z,6.33
2018-12-05T10:05:14.950Z,6.36
2018-12-05T10:06:14.686Z,6.36
2018-12-05T10:07:14.723Z,6.39
2018-12-05T10:08:14.951Z,6.4
2018-12-05T10:09:14.673Z,6.44
2018-12-05T10:10:14.824Z,6.46
2018-12-05T10:11:14.699Z,6.46
2018-12-05T10:12:14.544Z,6.48
2018-12-05T10:13:14.535Z,6.48
2018-12-05T10:14:14.793Z,6.47
2018-12-05T10:15:14.717Z,6.48
2018-12-05T10:16:15.137Z,6.5
2018-12-05T10:17:14.910Z,6.51
2018-12-05T10:18:14.639Z,6.5
2018-12-05T10:19:14.560Z,6.48
2018-12-05T10:20:14.805Z,6.51
2018-12-05T10:21:14.523Z,6.51
2018-12-05T10:22:14.612Z,6.51
2018-12-05T10:23:14.541Z,6.5
2018-12-05T10:24:14.545Z,6.51
2018-12-05T10:25:14.545Z,6.52
2018-12-05T10:26:14.691Z,6.52
2018-12-05T10:27:14.599Z,6.56
2018-12-05T10:28:14.999Z,6.54
2018-12-05T10:29:14.665Z,6.56
2018-12-05T10:30:14.601Z,6.57
2018-12-05T10:31:14.504Z,6.57
2018-12-05T10:32:14.592Z,6.54
2018-12-05T10:33:14.621Z,6.58
2018-12-05T10:34:14.511Z,6.58
2018-12-05T10:35:14.502Z,6.53
2018-12-05T10:36:14.787Z,6.57
2018-12-05T10:37:14.524Z,6.53
2018-12-05T10:38:14.533Z,6.56
2018-12-05T10:39:14.515Z,6.58
2018-12-05T10:40:14.916Z,6.62
2018-12-05T10:41:14.491Z,6.64
2018-12-05T10:42:14.543Z,6.66
2018-12-05T10:43:14.545Z,6.7
2018-12-05T10:44:14.645Z,6.7
2018-12-05T10:45:14.736Z,6.7
2018-12-05T10:46:15.356Z,6.77
2018-12-05T10:47:14.893Z,6.76
2018-12-05T10:48:14.711Z,6.78
2018-12-05T10:49:14.498Z,6.83
2018-12-05T10:50:14.620Z,6.84
2018-12-05T10:51:14.831Z,6.9
2018-12-05T10:52:14.582Z,6.92
2018-12-05T10:53:14.605Z,6.96
2018-12-05T10:54:14.549Z,6.96
2018-12-05T10:55:14.655Z,6.97
2018-12-05T10:56:14.690Z,7.02
2018-12-05T10:57:14.787Z,7.07
2018-12-05T10:58:14.507Z,7.1
2018-12-05T10:59:14.595Z,7.11
2018-12-05T11:00:14.650Z,7.15
2018-12-05T11:01:14.545Z,7.17
2018-12-05T11:02:15.237Z,7.21
2018-12-05T11:03:14.537Z,7.27
2018-12-05T11:04:14.640Z,7.28
2018-12-05T11:05:14.655Z,7.28
2018-12-05T11:06:14.778Z,7.27
2018-12-05T11:07:14.493Z,7.27
2018-12-05T11:08:14.543Z,7.29
2018-12-05T11:09:14.769Z,7.28
2018-12-05T11:10:14.569Z,7.28
2018-12-05T11:11:14.623Z,7.29
2018-12-05T11:12:14.583Z,7.28
2018-12-05T11:13:14.607Z,7.28
2018-12-05T11:14:14.818Z,7.31
2018-12-05T11:15:14.511Z,7.34
2018-12-05T11:16:14.676Z,7.38
2018-12-05T11:17:14.676Z,7.37
2018-12-05T11:18:14.503Z,7.35
2018-12-05T11:19:15.015Z,7.38
2018-12-05T11:20:14.687Z,7.36
2018-12-05T11:21:14.528Z,7.39
2018-12-05T11:22:14.616Z,7.4
2018-12-05T11:23:14.590Z,7.4
2018-12-05T11:24:14.790Z,7.37
2018-12-05T11:25:14.506Z,7.37
2018-12-05T11:26:14.580Z,7.39
2018-12-05T11:27:14.810Z,7.4
2018-12-05T11:28:15.344Z,7.43
2018-12-05T11:29:14.577Z,7.44
2018-12-05T11:30:14.756Z,7.45
2018-12-05T11:31:14.749Z,7.43
2018-12-05T11:32:14.767Z,7.44
2018-12-05T11:33:14.601Z,7.4
2018-12-05T11:34:14.609Z,7.38
2018-12-05T11:35:14.534Z,7.43
2018-12-05T11:36:14.552Z,7.44
2018-12-05T11:37:14.875Z,7.49
2018-12-05T11:38:14.495Z,7.45
2018-12-05T11:39:14.564Z,7.48
2018-12-05T11:40:15.269Z,7.45
2018-12-05T11:41:14.522Z,7.45
2018-12-05T11:42:14.651Z,7.47
2018-12-05T11:43:14.491Z,7.49
2018-12-05T11:44:14.600Z,7.49
2018-12-05T11:45:14.685Z,7.48
2018-12-05T11:46:14.847Z,7.49
2018-12-05T11:47:14.564Z,7.49
2018-12-05T11:48:14.657Z,7.49
2018-12-05T11:49:15.021Z,7.47
2018-12-05T11:50:14.484Z,7.48
2018-12-05T11:51:14.515Z,7.47
2018-12-05T11:52:14.632Z,7.5
2018-12-05T11:53:14.564Z,7.51
2018-12-05T11:54:14.410Z,7.5
2018-12-05T11:55:14.576Z,7.51
2018-12-05T11:56:14.457Z,7.48
2018-12-05T11:57:14.453Z,7.52
2018-12-05T11:58:14.503Z,7.53
2018-12-05T11:59:14.456Z,7.55
2018-12-05T12:00:14.420Z,7.53
2018-12-05T12:01:14.427Z,7.53
2018-12-05T12:02:14.484Z,7.53
2018-12-05T12:03:14.432Z,7.58
2018-12-05T12:04:14.547Z,7.61
2018-12-05T12:05:14.588Z,7.68
2018-12-05T12:06:14.609Z,7.73
2018-12-05T12:07:14.466Z,7.79
2018-12-05T12:08:15.053Z,7.84
2018-12-05T12:09:14.533Z,7.85
2018-12-05T12:10:14.938Z,7.9
2018-12-05T12:11:14.433Z,7.92
2018-12-05T12:12:14.506Z,7.95
2018-12-05T12:13:14.650Z,7.96
2018-12-05T12:14:14.505Z,7.95
2018-12-05T12:15:14.454Z,7.9
2018-12-05T12:16:14.487Z,7.94
2018-12-05T12:17:14.406Z,7.96
2018-12-05T12:18:14.555Z,7.96
2018-12-05T12:19:14.442Z,7.96
2018-12-05T12:20:14.560Z,7.97
2018-12-05T12:21:14.452Z,8.02
2018-12-05T12:22:14.458Z,8.07
2018-12-05T12:23:15.249Z,8.1
2018-12-05T12:24:14.537Z,8.14
2018-12-05T12:25:15.953Z,8.12
2018-12-05T12:26:15.688Z,8.13
2018-12-05T12:27:14.661Z,8.19
2018-12-05T12:28:14.733Z,8.24
2018-12-05T12:29:14.572Z,8.31
2018-12-05T12:30:16.568Z,8.39
2018-12-05T12:31:14.462Z,8.4
2018-12-05T12:32:14.480Z,8.45
2018-12-05T12:33:14.823Z,8.51
2018-12-05T12:34:14.537Z,8.51
2018-12-05T12:35:14.446Z,8.51
2018-12-05T12:36:14.428Z,8.54
2018-12-05T12:37:14.378Z,8.54
2018-12-05T12:38:14.443Z,8.54
2018-12-05T12:39:14.621Z,8.63
2018-12-05T12:40:14.732Z,8.62
2018-12-05T12:41:14.433Z,8.64
2018-12-05T12:42:14.420Z,8.67
2018-12-05T12:43:14.399Z,8.69
2018-12-05T12:44:14.518Z,8.72
2018-12-05T12:45:14.355Z,8.75
2018-12-05T12:46:14.450Z,8.77
2018-12-05T12:47:14.793Z,8.74
2018-12-05T12:48:14.430Z,8.78
2018-12-05T12:49:14.587Z,8.82
2018-12-05T12:50:14.733Z,8.81
2018-12-05T12:51:14.790Z,8.82
2018-12-05T12:52:14.394Z,8.8
2018-12-05T12:53:14.369Z,8.83
2018-12-05T12:54:14.506Z,8.85
2018-12-05T12:55:14.611Z,8.82
2018-12-05T12:56:14.432Z,8.79
2018-12-05T12:57:14.419Z,8.79
2018-12-05T12:58:15.197Z,8.83
2018-12-05T12:59:14.567Z,8.82
2018-12-05T13:00:14.602Z,8.88
2018-12-05T13:01:14.372Z,8.9
2018-12-05T13:02:14.373Z,8.89
2018-12-05T13:03:14.538Z,8.92
2018-12-05T13:04:14.396Z,8.92
2018-12-05T13:05:14.532Z,8.95
2018-12-05T13:06:14.767Z,8.96
2018-12-05T13:07:14.412Z,8.97
2018-12-05T13:08:14.400Z,8.96
2018-12-05T13:09:14.415Z,8.94
2018-12-05T13:10:14.586Z,8.93
2018-12-05T13:11:14.807Z,8.93
2018-12-05T13:12:14.384Z,8.93
2018-12-05T13:13:14.339Z,8.89
2018-12-05T13:14:14.537Z,8.88
2018-12-05T13:15:14.644Z,8.88
2018-12-05T13:16:14.651Z,8.91
2018-12-05T13:17:14.330Z,8.87
2018-12-05T13:18:14.370Z,8.88
2018-12-05T13:19:14.481Z,8.9
2018-12-05T13:20:14.287Z,8.89
2018-12-05T13:21:14.394Z,8.89
2018-12-05T13:22:14.445Z,8.89